Time;durP1;ratioP1;P1;durP2;ratioP2;P2;SDS_P1;SDS_P2;PMS_P1;PMS_P2;Temp;Humidity;BMP_temperature;BMP_pressure;BME280_temperature;BME280_humidity;BME280_pressure;Samples;Min_cycle;Max_cycle;Signal;HPM_P1;HPM_P2
2023/03/01 00:01:40;;;;;;;0.00;0.00;;;2.30;83.40;;;;;;4984035;28;20454;-67
2023/03/01 00:04:06;;;;;;;0.03;0.03;;;2.20;83.30;;;;;;4989912;28;20049;-67
2023/03/01 00:06:32;;;;;;;0.00;0.00;;;2.10;83.20;;;;;;4987456;28;20086;-67
2023/03/01 00:08:57;;;;;;;0.00;0.00;;;2.00;83.20;;;;;;4971075;28;20416;-67
2023/03/01 00:11:26;;;;;;;0.10;0.10;;;2.00;83.10;;;;;;4971437;28;20061;-67
2023/03/01 00:13:54;;;;;;;0.10;0.10;;;2.00;83.30;;;;;;4980759;28;20603;-67
2023/03/01 00:16:26;;;;;;;0.00;0.00;;;2.00;83.40;;;;;;4984913;28;20053;-67
2023/03/01 00:18:56;;;;;;;0.05;0.05;;;2.00;83.40;;;;;;4953587;28;20062;-67
2023/03/01 00:21:22;;;;;;;0.00;0.00;;;2.00;83.30;;;;;;4972240;28;20096;-67
2023/03/01 00:23:49;;;;;;;0.00;0.00;;;1.90;83.30;;;;;;4971005;28;20053;-67
2023/03/01 00:26:16;;;;;;;0.05;0.05;;;1.90;83.10;;;;;;4982893;28;20043;-69
2023/03/01 00:28:42;;;;;;;0.00;0.00;;;1.80;83.20;;;;;;4970838;28;20089;-66
2023/03/01 00:31:16;;;;;;;0.10;0.10;;;1.80;83.20;;;;;;4970957;28;20043;-66
2023/03/01 00:33:43;;;;;;;0.10;0.10;;;1.70;83.10;;;;;;4971095;28;20061;-69
2023/03/01 00:36:10;;;;;;;0.03;0.03;;;1.70;83.10;;;;;;4971664;28;20098;-66
2023/03/01 00:38:39;;;;;;;0.30;0.30;;;1.60;83.20;;;;;;4970664;28;20078;-67
2023/03/01 00:41:07;;;;;;;0.00;0.00;;;1.60;83.30;;;;;;4970847;28;20097;-67
2023/03/01 00:43:36;;;;;;;0.10;0.10;;;1.70;83.60;;;;;;4971138;28;20058;-67
2023/03/01 00:46:13;;;;;;;0.00;0.00;;;1.70;83.70;;;;;;4970034;28;20503;-67
2023/03/01 00:48:39;;;;;;;0.10;0.10;;;1.70;83.60;;;;;;4977895;28;20081;-67
2023/03/01 00:51:14;;;;;;;0.00;0.00;;;1.60;83.70;;;;;;4987809;28;20061;-67
2023/03/01 00:53:40;;;;;;;0.03;0.03;;;1.60;84.00;;;;;;4976336;28;20062;-67
2023/03/01 00:56:07;;;;;;;0.10;0.10;;;1.70;84.10;;;;;;4970441;28;20062;-67
2023/03/01 00:58:34;;;;;;;0.10;0.10;;;1.70;84.00;;;;;;4976762;28;20046;-67
2023/03/01 01:01:00;;;;;;;0.03;0.03;;;1.70;83.90;;;;;;4981257;28;20077;-67
2023/03/01 01:03:26;;;;;;;0.00;0.00;;;1.60;83.80;;;;;;4988439;28;20100;-67
2023/03/01 01:05:52;;;;;;;0.00;0.00;;;1.60;83.70;;;;;;4983587;28;20050;-67
2023/03/01 01:08:22;;;;;;;0.08;0.08;;;1.60;83.70;;;;;;4986913;28;20147;-67
2023/03/01 01:10:47;;;;;;;0.00;0.00;;;1.60;83.50;;;;;;4977073;28;20047;-67
2023/03/01 01:13:13;;;;;;;0.10;0.10;;;1.60;83.50;;;;;;4971286;28;20055;-67
2023/03/01 01:15:39;;;;;;;0.00;0.00;;;1.60;83.50;;;;;;4987070;28;20069;-67
2023/03/01 01:18:05;;;;;;;0.00;0.00;;;1.60;83.40;;;;;;4970351;28;20058;-67
2023/03/01 01:20:32;;;;;;;0.00;0.00;;;1.50;83.30;;;;;;4970312;28;20059;-67
2023/03/01 01:22:57;;;;;;;0.00;0.00;;;1.50;83.30;;;;;;4970402;28;20445;-67
2023/03/01 01:25:24;;;;;;;0.00;0.00;;;1.40;83.20;;;;;;4970418;28;20092;-67
2023/03/01 01:27:50;;;;;;;0.00;0.00;;;1.40;83.20;;;;;;4980438;28;20046;-67
2023/03/01 01:30:16;;;;;;;0.00;0.00;;;1.40;83.10;;;;;;4989862;28;20117;-67
2023/03/01 01:32:42;;;;;;;0.10;0.10;;;1.30;83.20;;;;;;4985013;28;20502;-67
2023/03/01 01:35:08;;;;;;;0.00;0.00;;;1.40;83.30;;;;;;4981856;28;20542;-67
2023/03/01 01:37:33;;;;;;;0.00;0.00;;;1.30;83.20;;;;;;4978025;28;20141;-67
2023/03/01 01:40:00;;;;;;;0.00;0.00;;;1.30;83.20;;;;;;4984206;28;20058;-67
2023/03/01 01:42:27;;;;;;;0.10;0.10;;;1.30;83.10;;;;;;4968885;28;20139;-67
2023/03/01 01:45:32;;;;;;;0.10;0.10;;;1.20;83.10;;;;;;4970196;28;20134;-67
2023/03/01 01:48:10;;;;;;;0.00;0.00;;;1.20;83.00;;;;;;4960680;28;20059;-67
2023/03/01 01:50:40;;;;;;;0.00;0.00;;;1.20;83.10;;;;;;4971146;28;20491;-67
2023/03/01 01:53:17;;;;;;;0.00;0.00;;;1.20;83.10;;;;;;4969229;28;20061;-68
2023/03/01 01:55:48;;;;;;;0.00;0.00;;;1.20;83.00;;;;;;4969836;28;20057;-67
2023/03/01 01:58:17;;;;;;;0.10;0.10;;;1.00;82.90;;;;;;4970017;28;20055;-67
2023/03/01 02:00:43;;;;;;;0.20;0.20;;;1.00;83.00;;;;;;4969935;28;20046;-67
2023/03/01 02:03:19;;;;;;;0.10;0.10;;;1.00;83.00;;;;;;4980835;28;20038;-67
2023/03/01 02:05:55;;;;;;;0.10;0.10;;;0.90;82.80;;;;;;4989428;28;20388;-67
2023/03/01 02:08:23;;;;;;;0.00;0.00;;;0.70;83.50;;;;;;4976350;28;20054;-67
2023/03/01 02:10:50;;;;;;;0.00;0.00;;;0.70;83.50;;;;;;4976947;28;20136;-67
2023/03/01 02:13:15;;;;;;;0.10;0.10;;;0.70;83.70;;;;;;4989861;28;20051;-67
2023/03/01 02:15:43;;;;;;;0.00;0.00;;;0.70;83.80;;;;;;4989308;28;20058;-67
2023/03/01 02:18:11;;;;;;;0.00;0.00;;;0.60;83.70;;;;;;4986859;28;20047;-67
2023/03/01 02:20:48;;;;;;;0.00;0.00;;;0.50;83.80;;;;;;4979934;28;20090;-68
2023/03/01 02:23:13;;;;;;;0.00;0.00;;;0.50;83.90;;;;;;4973057;28;20046;-67
2023/03/01 02:26:01;;;;;;;0.00;0.00;;;0.40;83.90;;;;;;4990184;28;20137;-67
2023/03/01 02:28:30;;;;;;;0.00;0.00;;;0.40;83.90;;;;;;4991615;28;20049;-67
2023/03/01 02:33:42;;;;;;;0.00;0.00;;;0.40;84.00;;;;;;4991289;28;20058;-67
2023/03/01 02:36:19;;;;;;;0.00;0.00;;;0.40;84.10;;;;;;4995937;28;20104;-67
2023/03/01 02:38:46;;;;;;;0.10;0.10;;;0.40;84.00;;;;;;4976632;28;20488;-67
2023/03/01 02:41:15;;;;;;;0.10;0.10;;;0.30;84.20;;;;;;4971533;28;20059;-67
2023/03/01 02:43:41;;;;;;;0.00;0.00;;;0.30;84.50;;;;;;4972705;28;20057;-67
2023/03/01 02:46:19;;;;;;;0.00;0.00;;;0.40;84.90;;;;;;4972998;28;20039;-67
2023/03/01 02:48:53;;;;;;;0.00;0.00;;;0.40;84.90;;;;;;4985579;28;20043;-67
2023/03/01 02:51:42;;;;;;;0.00;0.00;;;0.40;84.80;;;;;;4972654;28;20050;-67
2023/03/01 02:54:17;;;;;;;1.45;0.75;;;0.50;84.80;;;;;;4984805;28;20046;-67
2023/03/01 02:56:45;;;;;;;0.10;0.10;;;0.40;84.90;;;;;;4975963;28;20153;-67
2023/03/01 02:59:11;;;;;;;0.00;0.00;;;0.50;84.80;;;;;;4976652;28;20779;-67
2023/03/01 03:01:36;;;;;;;0.10;0.10;;;0.50;84.80;;;;;;4984808;28;20077;-67
2023/03/01 03:04:07;;;;;;;0.00;0.00;;;0.50;84.80;;;;;;4982460;28;20047;-67
2023/03/01 03:06:33;;;;;;;0.00;0.00;;;0.40;85.10;;;;;;5019660;28;20068;-67
2023/03/01 03:08:59;;;;;;;0.00;0.00;;;0.40;85.10;;;;;;4974748;28;20035;-67
2023/03/01 03:11:25;;;;;;;0.00;0.00;;;0.50;85.00;;;;;;4971381;28;20074;-67
2023/03/01 03:13:51;;;;;;;0.10;0.10;;;0.50;84.90;;;;;;4972011;28;20133;-67
2023/03/01 03:16:18;;;;;;;0.10;0.10;;;0.40;84.90;;;;;;4976060;28;20401;-67
2023/03/01 03:18:44;;;;;;;0.00;0.00;;;0.50;85.00;;;;;;4999163;28;20484;-67
2023/03/01 03:21:11;;;;;;;0.00;0.00;;;0.50;85.20;;;;;;4976420;28;20089;-67
2023/03/01 03:23:37;;;;;;;0.00;0.00;;;0.50;85.30;;;;;;4990131;28;20046;-67
2023/03/01 03:26:04;;;;;;;0.00;0.00;;;0.60;85.40;;;;;;4990276;28;20034;-67
2023/03/01 03:28:33;;;;;;;0.00;0.00;;;0.60;85.40;;;;;;4989867;28;20061;-67
2023/03/01 03:31:03;;;;;;;0.00;0.00;;;0.60;85.60;;;;;;4972003;28;20535;-67
2023/03/01 03:33:32;;;;;;;0.00;0.00;;;0.60;85.60;;;;;;4971661;28;20647;-67
2023/03/01 03:35:58;;;;;;;0.00;0.00;;;0.60;85.70;;;;;;4988769;28;20090;-67
2023/03/01 03:38:24;;;;;;;0.00;0.00;;;0.60;85.50;;;;;;4991414;28;20073;-67
2023/03/01 03:40:52;;;;;;;0.10;0.10;;;0.60;85.40;;;;;;4972581;28;20050;-67
2023/03/01 03:43:21;;;;;;;0.00;0.00;;;0.60;85.40;;;;;;4987086;28;20046;-67
2023/03/01 03:45:48;;;;;;;0.00;0.00;;;0.50;85.40;;;;;;4971895;28;20129;-67
2023/03/01 03:48:14;;;;;;;0.00;0.00;;;0.50;85.40;;;;;;4973199;28;20058;-67
2023/03/01 03:50:40;;;;;;;0.00;0.00;;;0.50;85.30;;;;;;4971525;28;20047;-67
2023/03/01 03:53:09;;;;;;;0.00;0.00;;;0.60;85.50;;;;;;4970247;28;20109;-67
2023/03/01 03:55:38;;;;;;;0.00;0.00;;;0.50;85.50;;;;;;5005703;28;20128;-67
2023/03/01 03:58:06;;;;;;;0.00;0.00;;;0.50;85.40;;;;;;5003761;28;20094;-67
2023/03/01 04:00:34;;;;;;;0.00;0.00;;;0.60;85.30;;;;;;4972016;28;20496;-67
2023/03/01 04:03:00;;;;;;;0.10;0.10;;;0.60;85.20;;;;;;4971817;28;20515;-67
2023/03/01 04:05:26;;;;;;;0.10;0.10;;;0.60;85.10;;;;;;4971262;28;20078;-66
2023/03/01 04:08:06;;;;;;;0.00;0.00;;;0.60;85.00;;;;;;4981059;28;20050;-67
2023/03/01 04:10:44;;;;;;;0.00;0.00;;;0.60;85.00;;;;;;4971321;28;20073;-67
2023/03/01 04:13:12;;;;;;;0.08;0.08;;;0.60;85.10;;;;;;4971250;28;20046;-67
2023/03/01 04:15:38;;;;;;;0.00;0.00;;;0.60;85.00;;;;;;4978062;28;20085;-67
2023/03/01 04:18:05;;;;;;;0.00;0.00;;;0.50;84.90;;;;;;4986355;28;20112;-67
2023/03/01 04:20:34;;;;;;;0.00;0.00;;;0.50;84.90;;;;;;4980924;28;20038;-67
2023/03/01 04:23:20;;;;;;;0.00;0.00;;;0.50;84.80;;;;;;4989262;28;20061;-67
2023/03/01 04:25:53;;;;;;;0.00;0.00;;;0.50;84.80;;;;;;4990399;28;20562;-67
2023/03/01 04:28:24;;;;;;;0.10;0.10;;;0.50;84.80;;;;;;5004795;28;20046;-67
2023/03/01 04:30:50;;;;;;;0.00;0.00;;;0.50;84.80;;;;;;4980696;28;20070;-67
2023/03/01 04:33:16;;;;;;;0.10;0.10;;;0.40;84.80;;;;;;4975775;28;20065;-68
2023/03/01 04:35:41;;;;;;;0.03;0.03;;;0.50;84.70;;;;;;4970850;28;20046;-68
2023/03/01 04:38:07;;;;;;;0.00;0.00;;;0.50;84.80;;;;;;4970977;28;20138;-68
2023/03/01 04:40:33;;;;;;;0.10;0.10;;;0.50;84.70;;;;;;4988398;28;20105;-68
2023/03/01 04:42:59;;;;;;;0.00;0.00;;;0.60;84.80;;;;;;4990217;28;20521;-68
2023/03/01 04:45:25;;;;;;;0.00;0.00;;;0.60;84.80;;;;;;4989447;28;20042;-68
2023/03/01 04:47:52;;;;;;;0.00;0.00;;;0.50;84.90;;;;;;4990228;28;20050;-68
2023/03/01 04:50:23;;;;;;;0.00;0.00;;;0.50;84.80;;;;;;4983516;28;20166;-68
2023/03/01 04:52:49;;;;;;;0.10;0.10;;;0.50;84.70;;;;;;4971386;28;20053;-68
2023/03/01 04:55:15;;;;;;;0.10;0.10;;;0.40;84.70;;;;;;5000912;28;20054;-68
2023/03/01 04:57:41;;;;;;;0.00;0.00;;;0.50;84.80;;;;;;4995633;28;20043;-68
2023/03/01 05:00:43;;;;;;;0.00;0.00;;;0.50;84.80;;;;;;4971446;28;20043;-68
2023/03/01 05:03:01;;;;;;;0.00;0.00;;;0.50;84.70;;;;;;4986939;28;20141;-68
2023/03/01 05:05:31;;;;;;;0.10;0.10;;;0.50;84.70;;;;;;4989098;28;20484;-68
2023/03/01 05:08:00;;;;;;;0.00;0.00;;;0.50;84.60;;;;;;4982946;28;20050;-68
2023/03/01 05:10:28;;;;;;;0.00;0.00;;;0.50;84.70;;;;;;4990707;28;20072;-68
2023/03/01 05:12:56;;;;;;;0.00;0.00;;;0.50;84.60;;;;;;4972502;28;20416;-68
2023/03/01 05:15:25;;;;;;;0.00;0.00;;;0.40;84.60;;;;;;4971725;28;20113;-68
2023/03/01 05:17:51;;;;;;;0.00;0.00;;;0.40;84.50;;;;;;4975717;28;20054;-68
2023/03/01 05:20:17;;;;;;;0.00;0.00;;;0.30;84.50;;;;;;4971280;28;20129;-67
2023/03/01 05:22:43;;;;;;;0.00;0.00;;;0.30;84.50;;;;;;4987386;28;20545;-68
2023/03/01 05:25:09;;;;;;;0.10;0.10;;;0.40;84.50;;;;;;4986656;28;20046;-68
2023/03/01 05:27:35;;;;;;;0.10;0.10;;;0.30;84.40;;;;;;4989296;28;20046;-68
2023/03/01 05:30:13;;;;;;;0.00;0.00;;;0.30;84.40;;;;;;4973738;28;20046;-68
2023/03/01 05:32:42;;;;;;;0.00;0.00;;;0.30;84.50;;;;;;4979948;28;20092;-68
2023/03/01 05:35:08;;;;;;;0.10;0.10;;;0.30;84.40;;;;;;4979565;28;20198;-68
2023/03/01 05:37:35;;;;;;;0.00;0.00;;;0.30;84.40;;;;;;4980690;28;20125;-68
2023/03/01 05:40:01;;;;;;;0.00;0.00;;;0.30;84.40;;;;;;4969320;28;20055;-68
2023/03/01 05:42:26;;;;;;;0.00;0.00;;;0.20;84.40;;;;;;4981300;28;20047;-68
2023/03/01 05:44:52;;;;;;;0.10;0.10;;;0.20;84.40;;;;;;4987308;28;20038;-67
2023/03/01 05:47:18;;;;;;;0.10;0.10;;;0.10;84.40;;;;;;4975490;28;20106;-67
2023/03/01 05:49:43;;;;;;;0.00;0.00;;;0.10;84.50;;;;;;4978732;28;20054;-68
2023/03/01 05:52:09;;;;;;;0.00;0.00;;;0.10;84.50;;;;;;4979166;28;20609;-68
2023/03/01 05:54:34;;;;;;;0.20;0.20;;;0.10;84.60;;;;;;4976850;28;20047;-67
2023/03/01 05:57:00;;;;;;;0.10;0.10;;;0.10;84.70;;;;;;4978773;28;20073;-67
2023/03/01 05:59:25;;;;;;;0.00;0.00;;;0.10;84.70;;;;;;4972467;28;20046;-67
2023/03/01 06:01:51;;;;;;;0.00;0.00;;;0.10;84.70;;;;;;4960597;28;20051;-68
2023/03/01 06:04:17;;;;;;;0.00;0.00;;;0.10;84.70;;;;;;4973971;28;20122;-67
2023/03/01 06:06:42;;;;;;;0.10;0.10;;;0.00;84.70;;;;;;4983097;28;20069;-67
2023/03/01 06:09:09;;;;;;;0.00;0.00;;;0.10;84.90;;;;;;4979059;28;20061;-67
2023/03/01 06:11:36;;;;;;;0.00;0.00;;;0.10;85.00;;;;;;4979769;28;20058;-68
2023/03/01 06:14:03;;;;;;;0.03;0.03;;;0.10;85.10;;;;;;4985855;28;20061;-67
2023/03/01 06:16:28;;;;;;;0.00;0.00;;;0.20;85.00;;;;;;4985156;28;20061;-67
2023/03/01 06:18:54;;;;;;;0.00;0.00;;;0.20;85.00;;;;;;4980308;28;20046;-67
2023/03/01 06:21:19;;;;;;;0.10;0.10;;;0.20;85.00;;;;;;4984551;28;20042;-67
2023/03/01 06:23:45;;;;;;;0.10;0.10;;;0.20;85.00;;;;;;4982318;28;20043;-67
2023/03/01 06:26:10;;;;;;;0.00;0.00;;;0.20;85.00;;;;;;4988303;28;21071;-67
2023/03/01 06:28:36;;;;;;;0.00;0.00;;;0.10;84.80;;;;;;4973610;28;20054;-67
2023/03/01 06:31:02;;;;;;;0.00;0.00;;;0.20;84.80;;;;;;4976912;28;20604;-67
2023/03/01 06:33:27;;;;;;;0.03;0.03;;;0.20;84.70;;;;;;4971569;28;20506;-67
2023/03/01 06:35:56;;;;;;;0.10;0.10;;;0.10;84.70;;;;;;4980360;28;20046;-67
2023/03/01 06:38:23;;;;;;;0.10;0.10;;;0.10;84.80;;;;;;4987408;28;20074;-68
2023/03/01 06:40:54;;;;;;;0.10;0.10;;;0.00;84.80;;;;;;4988210;28;20066;-67
2023/03/01 06:43:20;;;;;;;0.00;0.00;;;0.00;84.60;;;;;;4977457;28;20892;-67
2023/03/01 06:45:46;;;;;;;0.00;0.00;;;0.00;84.70;;;;;;4972655;28;20050;-67
2023/03/01 06:48:11;;;;;;;0.10;0.10;;;0.00;84.70;;;;;;4983341;28;20035;-67
2023/03/01 06:50:37;;;;;;;0.00;0.00;;;0.00;84.70;;;;;;4988119;28;20054;-67
2023/03/01 06:53:03;;;;;;;0.10;0.10;;;0.00;84.70;;;;;;4986289;28;20051;-67
2023/03/01 06:55:29;;;;;;;0.00;0.00;;;0.00;84.50;;;;;;4982815;28;20053;-68
2023/03/01 06:57:59;;;;;;;0.00;0.00;;;0.00;84.50;;;;;;4984920;28;20038;-67
2023/03/01 07:00:27;;;;;;;0.08;0.08;;;0.40;89.00;;;;;;4966433;28;20077;-68
2023/03/01 07:02:52;;;;;;;0.10;0.10;;;0.30;86.30;;;;;;4969146;28;20744;-68
2023/03/01 07:05:18;;;;;;;0.00;0.00;;;0.20;86.00;;;;;;4969908;28;20050;-68
2023/03/01 07:07:44;;;;;;;0.10;0.10;;;0.10;85.70;;;;;;4979525;28;20609;-68
2023/03/01 07:10:11;;;;;;;0.10;0.10;;;0.00;85.70;;;;;;4984038;28;20046;-67
2023/03/01 07:12:37;;;;;;;0.10;0.10;;;0.00;85.60;;;;;;4987229;28;20429;-68
2023/03/01 07:15:03;;;;;;;0.10;0.10;;;0.00;85.60;;;;;;4977345;28;20057;-67
2023/03/01 07:17:29;;;;;;;0.00;0.00;;;0.00;85.50;;;;;;4974327;28;20055;-68
2023/03/01 07:19:54;;;;;;;0.00;0.00;;;0.00;85.50;;;;;;4972210;28;20057;-68
2023/03/01 07:22:20;;;;;;;0.00;0.00;;;0.00;85.40;;;;;;4984923;28;20377;-66
2023/03/01 07:24:45;;;;;;;0.10;0.10;;;0.00;85.60;;;;;;4986767;28;20054;-66
2023/03/01 07:27:11;;;;;;;0.10;0.10;;;0.00;85.70;;;;;;4978156;28;20031;-65
2023/03/01 07:29:37;;;;;;;0.00;0.00;;;0.10;85.70;;;;;;4984351;28;20047;-66
2023/03/01 07:32:03;;;;;;;0.10;0.10;;;0.10;85.70;;;;;;4973530;28;20043;-66
2023/03/01 07:34:29;;;;;;;0.43;0.43;;;0.20;85.80;;;;;;4985003;28;20074;-66
2023/03/01 07:36:55;;;;;;;0.30;0.30;;;0.20;85.70;;;;;;4984356;28;20066;-66
2023/03/01 07:39:22;;;;;;;0.00;0.00;;;0.30;85.70;;;;;;4975829;28;20038;-67
2023/03/01 07:41:48;;;;;;;0.00;0.00;;;0.30;85.50;;;;;;4975561;28;21684;-67
2023/03/01 07:44:15;;;;;;;0.10;0.10;;;0.30;85.30;;;;;;4991569;28;20070;-67
2023/03/01 07:46:41;;;;;;;0.13;0.13;;;0.30;85.30;;;;;;4986618;28;20039;-66
2023/03/01 07:49:06;;;;;;;0.10;0.10;;;0.30;85.20;;;;;;4982430;28;20059;-67
2023/03/01 07:51:32;;;;;;;0.00;0.00;;;0.40;85.20;;;;;;4978521;28;20133;-68
2023/03/01 07:53:58;;;;;;;0.00;0.00;;;0.40;85.30;;;;;;4977531;28;20074;-66
2023/03/01 07:56:23;;;;;;;0.00;0.00;;;0.50;85.20;;;;;;4974597;28;20082;-66
2023/03/01 07:58:49;;;;;;;0.00;0.00;;;0.50;85.10;;;;;;4974162;28;20055;-69
2023/03/01 08:01:18;;;;;;;0.00;0.00;;;0.60;85.10;;;;;;4974121;28;20046;-68
2023/03/01 08:03:44;;;;;;;0.00;0.00;;;0.60;85.10;;;;;;4971204;28;20063;-68
2023/03/01 08:06:11;;;;;;;0.00;0.00;;;0.60;85.10;;;;;;4975125;28;20034;-69
2023/03/01 08:08:37;;;;;;;0.10;0.10;;;0.70;85.00;;;;;;4974119;28;20051;-68
2023/03/01 08:11:05;;;;;;;0.00;0.00;;;0.80;85.10;;;;;;4977997;28;20046;-66
2023/03/01 08:13:31;;;;;;;0.00;0.00;;;0.90;85.20;;;;;;4982399;28;20059;-68
2023/03/01 08:16:04;;;;;;;0.00;0.00;;;0.90;85.20;;;;;;4972509;28;20627;-67
2023/03/01 08:18:29;;;;;;;0.00;0.00;;;1.10;85.30;;;;;;4972094;28;20523;-67
2023/03/01 08:20:55;;;;;;;0.00;0.00;;;1.10;85.20;;;;;;4972803;28;20046;-67
2023/03/01 08:23:21;;;;;;;0.10;0.10;;;1.20;85.20;;;;;;4976622;28;20049;-65
2023/03/01 08:25:46;;;;;;;0.00;0.00;;;1.30;85.20;;;;;;4985300;28;20426;-68
2023/03/01 08:28:12;;;;;;;0.10;0.10;;;1.30;85.10;;;;;;4995324;28;20050;-66
2023/03/01 08:30:37;;;;;;;0.00;0.00;;;1.40;85.10;;;;;;4995338;28;20486;-66
2023/03/01 08:33:03;;;;;;;0.00;0.00;;;1.40;85.10;;;;;;4995040;28;20123;-68
2023/03/01 08:35:29;;;;;;;0.00;0.00;;;1.60;85.20;;;;;;4994535;28;20054;-67
2023/03/01 08:37:54;;;;;;;0.00;0.00;;;1.60;85.20;;;;;;4993702;28;20042;-68
2023/03/01 08:40:20;;;;;;;0.00;0.00;;;1.70;85.10;;;;;;4998396;28;20072;-68
2023/03/01 08:42:45;;;;;;;0.00;0.00;;;1.70;85.00;;;;;;4997441;28;20089;-68
2023/03/01 08:45:12;;;;;;;0.00;0.00;;;1.80;85.00;;;;;;5006711;28;20038;-68
2023/03/01 08:47:38;;;;;;;0.00;0.00;;;2.00;84.90;;;;;;5007210;28;20048;-68
2023/03/01 08:50:04;;;;;;;0.05;0.05;;;2.00;84.80;;;;;;5007079;28;20046;-68
2023/03/01 08:52:31;;;;;;;0.10;0.10;;;2.00;84.80;;;;;;4980694;28;20042;-68
2023/03/01 08:54:57;;;;;;;0.00;0.00;;;2.20;84.70;;;;;;4996302;28;20125;-68
2023/03/01 08:57:22;;;;;;;0.10;0.10;;;2.20;84.60;;;;;;4991505;28;20062;-66
2023/03/01 08:59:48;;;;;;;0.00;0.00;;;3.30;89.00;;;;;;5008793;28;20181;-65
2023/03/01 09:02:17;;;;;;;0.00;0.00;;;3.60;87.60;;;;;;4991362;28;20422;-66
2023/03/01 09:04:43;;;;;;;0.00;0.00;;;3.60;86.80;;;;;;4989579;28;20050;-66
2023/03/01 09:07:09;;;;;;;0.10;0.10;;;3.60;86.30;;;;;;4992258;28;20046;-67
2023/03/01 09:09:35;;;;;;;0.00;0.00;;;3.40;85.50;;;;;;4992450;28;20422;-65
2023/03/01 09:12:01;;;;;;;0.00;0.00;;;3.70;87.30;;;;;;4985126;28;20041;-69
2023/03/01 09:14:28;;;;;;;0.00;0.00;;;4.10;86.50;;;;;;4984434;28;20130;-69
2023/03/01 09:16:53;;;;;;;0.00;0.00;;;4.00;85.70;;;;;;4975172;28;20054;-68
2023/03/01 09:19:19;;;;;;;0.10;0.10;;;3.90;85.30;;;;;;4984258;28;20453;-69
2023/03/01 09:21:51;;;;;;;0.00;0.00;;;3.90;84.60;;;;;;4981997;28;20113;-68
2023/03/01 09:24:20;;;;;;;0.00;0.00;;;3.80;84.20;;;;;;4974562;28;20054;-69
2023/03/01 09:26:46;;;;;;;0.10;0.10;;;3.70;83.90;;;;;;4973270;28;20038;-68
2023/03/01 09:29:12;;;;;;;0.10;0.10;;;3.60;83.80;;;;;;4985202;28;20046;-68
2023/03/01 09:31:38;;;;;;;0.10;0.10;;;3.60;83.80;;;;;;4987700;28;20066;-69
2023/03/01 09:34:04;;;;;;;0.00;0.00;;;3.60;83.50;;;;;;4983227;28;20074;-69
2023/03/01 09:36:30;;;;;;;0.00;0.00;;;3.60;83.60;;;;;;4990106;28;20128;-70
2023/03/01 09:38:58;;;;;;;0.00;0.00;;;3.70;83.50;;;;;;4985988;28;20128;-70
2023/03/01 09:41:47;;;;;;;0.00;0.00;;;3.60;83.50;;;;;;4980580;28;20392;-69
2023/03/01 09:44:29;;;;;;;0.00;0.00;;;3.60;83.40;;;;;;4986000;28;20495;-69
2023/03/01 09:46:56;;;;;;;0.00;0.00;;;3.60;83.40;;;;;;4975667;28;20074;-68
2023/03/01 09:49:30;;;;;;;0.00;0.00;;;3.70;83.50;;;;;;4974008;28;20145;-67
2023/03/01 09:52:32;;;;;;;0.00;0.00;;;3.70;83.40;;;;;;4975333;28;20051;-69
2023/03/01 09:54:57;;;;;;;0.00;0.00;;;3.70;83.30;;;;;;4983090;28;20041;-69
2023/03/01 09:57:33;;;;;;;0.00;0.00;;;3.80;83.30;;;;;;4984871;28;20039;-69
2023/03/01 10:00:21;;;;;;;0.08;0.08;;;3.90;83.20;;;;;;4977898;28;20050;-70
2023/03/01 10:02:59;;;;;;;0.05;0.05;;;4.00;83.30;;;;;;4987169;28;20043;-69
2023/03/01 10:05:49;;;;;;;0.10;0.10;;;4.00;83.10;;;;;;4983605;28;20092;-69
2023/03/01 10:08:38;;;;;;;0.20;0.15;;;4.10;83.10;;;;;;4984103;28;20042;-69
2023/03/01 10:11:26;;;;;;;0.00;0.00;;;4.10;82.80;;;;;;4986527;28;20042;-70
2023/03/01 10:14:02;;;;;;;0.00;0.00;;;4.20;82.70;;;;;;4982855;28;20038;-70
2023/03/01 10:17:07;;;;;;;0.00;0.00;;;4.30;82.70;;;;;;4981383;28;20061;-70
2023/03/01 10:19:39;;;;;;;0.00;0.00;;;4.30;82.50;;;;;;4986107;28;20094;-70
2023/03/01 10:22:40;;;;;;;0.47;0.47;;;4.30;82.30;;;;;;4984198;28;20448;-70
2023/03/01 10:25:14;;;;;;;0.10;0.10;;;4.40;82.10;;;;;;4975038;28;20491;-67
2023/03/01 10:27:53;;;;;;;0.00;0.00;;;4.40;81.80;;;;;;4987482;28;20163;-68
2023/03/01 10:30:41;;;;;;;0.00;0.00;;;4.50;81.60;;;;;;4982586;28;20077;-68
2023/03/01 10:33:24;;;;;;;0.00;0.00;;;4.60;81.70;;;;;;4981022;28;20034;-67
2023/03/01 10:35:50;;;;;;;0.00;0.00;;;4.60;81.70;;;;;;4985493;28;20069;-69
2023/03/01 10:38:16;;;;;;;0.00;0.00;;;4.70;81.90;;;;;;4993228;28;20451;-72
2023/03/01 10:41:06;;;;;;;0.00;0.00;;;4.70;81.70;;;;;;4991034;28;20050;-70
2023/03/01 10:43:45;;;;;;;0.10;0.10;;;4.70;81.40;;;;;;4990935;28;20034;-70
2023/03/01 10:46:29;;;;;;;0.00;0.00;;;4.80;81.30;;;;;;4985806;28;20126;-70
2023/03/01 10:49:13;;;;;;;0.00;0.00;;;4.80;80.90;;;;;;4973458;28;20038;-71
2023/03/01 10:51:44;;;;;;;0.00;0.00;;;4.90;80.60;;;;;;4974955;28;20043;-70
2023/03/01 10:54:17;;;;;;;0.00;0.00;;;5.00;80.60;;;;;;4978181;28;20058;-71
2023/03/01 10:56:49;;;;;;;0.10;0.10;;;5.00;80.30;;;;;;4982663;28;20185;-70
2023/03/01 10:59:26;;;;;;;0.00;0.00;;;5.10;80.40;;;;;;4972834;28;20047;-68
2023/03/01 11:02:02;;;;;;;0.00;0.00;;;5.10;80.30;;;;;;4981916;28;20050;-70
2023/03/01 11:04:28;;;;;;;0.10;0.10;;;5.20;80.00;;;;;;4975518;28;20047;-66
2023/03/01 11:07:01;;;;;;;0.10;0.10;;;5.20;79.80;;;;;;4973399;28;20728;-67
2023/03/01 11:09:37;;;;;;;0.00;0.00;;;5.30;79.70;;;;;;4973662;28;20042;-67
2023/03/01 11:12:04;;;;;;;1.65;1.13;;;5.30;79.40;;;;;;4976135;28;20113;-68
2023/03/01 11:14:37;;;;;;;0.00;0.00;;;5.40;79.40;;;;;;4978952;28;20088;-67
2023/03/01 11:17:11;;;;;;;0.00;0.00;;;5.50;79.20;;;;;;4972648;28;20054;-66
2023/03/01 11:19:37;;;;;;;0.00;0.00;;;5.60;79.30;;;;;;4977083;28;20123;-67
2023/03/01 11:22:11;;;;;;;0.10;0.10;;;5.70;79.10;;;;;;4976972;28;20042;-67
2023/03/01 11:24:41;;;;;;;0.30;0.30;;;5.70;79.30;;;;;;4980684;28;20725;-66
2023/03/01 11:27:22;;;;;;;0.60;0.32;;;5.90;78.90;;;;;;4991861;28;20051;-67
2023/03/01 11:30:12;;;;;;;0.00;0.00;;;5.90;78.80;;;;;;4978411;28;20125;-67
2023/03/01 11:33:06;;;;;;;0.00;0.00;;;5.90;78.50;;;;;;4983381;28;20050;-67
2023/03/01 11:35:35;;;;;;;0.08;0.08;;;6.00;78.10;;;;;;4937545;28;20457;-66
2023/03/01 11:38:24;;;;;;;0.00;0.00;;;6.00;78.00;;;;;;4972513;28;20046;-66
2023/03/01 11:40:58;;;;;;;0.10;0.10;;;6.10;77.80;;;;;;4981083;28;20050;-66
2023/03/01 11:43:34;;;;;;;0.03;0.03;;;6.20;77.80;;;;;;4990698;28;20038;-69
2023/03/01 11:46:21;;;;;;;0.10;0.10;;;6.20;77.70;;;;;;4979757;28;20054;-66
2023/03/01 11:49:26;;;;;;;0.10;0.10;;;6.30;77.60;;;;;;4986782;28;20109;-65
2023/03/01 11:52:13;;;;;;;0.10;0.10;;;6.40;76.90;;;;;;5005753;28;20138;-66
2023/03/01 11:54:59;;;;;;;0.10;0.10;;;6.50;76.00;;;;;;4981917;28;20050;-66
2023/03/01 11:57:48;;;;;;;0.00;0.00;;;6.60;75.70;;;;;;4984950;28;20049;-66
2023/03/01 12:00:44;;;;;;;0.08;0.08;;;6.60;75.20;;;;;;4990048;28;20100;-66
2023/03/01 12:03:47;;;;;;;0.03;0.03;;;6.70;75.20;;;;;;4974083;28;20049;-67
2023/03/01 12:06:30;;;;;;;0.00;0.00;;;6.80;74.10;;;;;;4989515;28;20072;-66
2023/03/01 12:09:16;;;;;;;0.00;0.00;;;6.90;73.70;;;;;;4983237;28;20043;-67
2023/03/01 12:11:47;;;;;;;0.10;0.10;;;7.00;72.40;;;;;;4965251;28;20046;-67
2023/03/01 12:14:36;;;;;;;0.10;0.10;;;7.10;72.00;;;;;;4977149;28;20081;-66
2023/03/01 12:17:15;;;;;;;0.00;0.00;;;7.10;72.70;;;;;;4970994;28;20077;-66
2023/03/01 12:19:46;;;;;;;0.00;0.00;;;7.10;71.90;;;;;;4973094;28;20050;-66
2023/03/01 12:22:31;;;;;;;0.28;0.28;;;7.20;72.40;;;;;;4979353;28;20135;-67
2023/03/01 12:24:59;;;;;;;0.00;0.00;;;7.30;72.70;;;;;;4985650;28;20039;-66
2023/03/01 12:28:00;;;;;;;0.47;0.47;;;7.30;72.40;;;;;;5008786;28;20041;-66
2023/03/01 12:30:34;;;;;;;0.10;0.10;;;7.40;70.80;;;;;;4979826;28;20127;-66
2023/03/01 12:33:13;;;;;;;0.00;0.00;;;7.40;70.70;;;;;;4971731;28;20050;-66
2023/03/01 12:36:07;;;;;;;0.65;0.65;;;7.50;70.90;;;;;;4978622;28;20054;-66
2023/03/01 12:38:41;;;;;;;0.00;0.00;;;7.50;69.30;;;;;;4994162;28;20077;-67
2023/03/01 12:41:52;;;;;;;0.17;0.17;;;7.60;70.00;;;;;;4990847;28;20038;-66
2023/03/01 12:44:39;;;;;;;0.00;0.00;;;7.50;69.40;;;;;;4986732;28;20066;-66
2023/03/01 12:47:11;;;;;;;0.10;0.10;;;7.60;70.40;;;;;;4976096;28;20595;-66
2023/03/01 12:49:51;;;;;;;0.00;0.00;;;7.60;70.50;;;;;;4981870;28;20042;-66
2023/03/01 12:52:46;;;;;;;0.10;0.10;;;7.60;68.90;;;;;;4973057;28;20042;-67
2023/03/01 12:55:42;;;;;;;0.10;0.10;;;7.60;69.70;;;;;;4989927;28;20085;-66
2023/03/01 12:58:24;;;;;;;0.00;0.00;;;7.60;68.20;;;;;;4986776;28;20105;-66
2023/03/01 13:01:12;;;;;;;0.10;0.10;;;7.70;68.90;;;;;;4980436;28;20051;-66
2023/03/01 13:04:15;;;;;;;0.15;0.15;;;7.80;69.90;;;;;;4980074;28;20562;-66
2023/03/01 13:06:47;;;;;;;0.28;0.28;;;7.80;68.90;;;;;;4978452;28;20112;-66
2023/03/01 13:09:38;;;;;;;0.30;0.30;;;7.80;67.90;;;;;;4986992;28;20721;-67
2023/03/01 13:12:24;;;;;;;0.38;0.38;;;8.00;69.60;;;;;;4988596;28;20572;-66
2023/03/01 13:14:54;;;;;;;0.00;0.00;;;8.00;69.00;;;;;;4972475;28;20512;-67
2023/03/01 13:17:44;;;;;;;0.15;0.15;;;8.00;68.30;;;;;;4971121;28;20105;-67
2023/03/01 13:20:14;;;;;;;0.17;0.17;;;8.10;68.60;;;;;;4973328;28;20054;-66
2023/03/01 13:22:39;;;;;;;0.00;0.00;;;8.10;68.60;;;;;;4981095;28;20046;-66